Time;durP1;ratioP1;P1;durP2;ratioP2;P2;SDS_P1;SDS_P2;PMS_P1;PMS_P2;Temp;Humidity;BMP_temperature;BMP_pressure;BME280_temperature;BME280_humidity;BME280_pressure;Samples;Min_cycle;Max_cycle;Signal;HPM_P1;HPM_P2
2023/05/14 00:00:08;;;;;;;30.27;13.37;;;;;;;;;;4994757;28;20479;-49
2023/05/14 00:02:36;;;;;;;33.13;13.48;;;;;;;;;;5000133;28;20120;-50
2023/05/14 00:05:04;;;;;;;33.08;13.40;;;;;;;;;;4985512;28;20122;-50
2023/05/14 00:07:35;;;;;;;32.72;11.90;;;;;;;;;;4983674;28;20041;-53
2023/05/14 00:10:04;;;;;;;29.73;11.93;;;;;;;;;;4988088;28;20046;-50
2023/05/14 00:12:31;;;;;;;30.00;11.87;;;;;;;;;;4992031;28;20618;-51
2023/05/14 00:14:59;;;;;;;30.58;13.80;;;;;;;;;;4990424;28;20586;-51
2023/05/14 00:17:27;;;;;;;45.38;19.35;;;;;;;;;;4983022;28;20050;-51
2023/05/14 00:19:55;;;;;;;38.45;15.70;;;;;;;;;;4990817;28;20054;-54
2023/05/14 00:22:22;;;;;;;36.03;14.68;;;;;;;;;;4977769;28;20599;-50
2023/05/14 00:24:50;;;;;;;29.03;12.30;;;;;;;;;;4991411;28;20088;-52
2023/05/14 00:27:19;;;;;;;31.58;12.68;;;;;;;;;;4988581;28;20437;-51
2023/05/14 00:29:47;;;;;;;31.17;13.05;;;;;;;;;;4984037;28;20041;-51
2023/05/14 00:32:14;;;;;;;30.33;12.18;;;;;;;;;;4990843;28;20100;-52
2023/05/14 00:34:42;;;;;;;25.52;10.82;;;;;;;;;;4995434;28;20924;-53
2023/05/14 00:37:10;;;;;;;29.03;12.80;;;;;;;;;;4984296;28;20098;-53
2023/05/14 00:39:37;;;;;;;30.33;11.57;;;;;;;;;;4994781;28;20072;-51
2023/05/14 00:42:05;;;;;;;26.60;11.88;;;;;;;;;;4993686;28;20077;-52
2023/05/14 00:44:35;;;;;;;25.63;11.70;;;;;;;;;;4994237;28;20104;-50
2023/05/14 00:47:06;;;;;;;26.17;10.35;;;;;;;;;;5002895;28;20124;-55
2023/05/14 00:49:34;;;;;;;24.43;10.33;;;;;;;;;;4994717;28;20053;-52
2023/05/14 00:52:01;;;;;;;24.08;9.75;;;;;;;;;;4980178;28;20125;-51
2023/05/14 00:54:30;;;;;;;22.90;9.35;;;;;;;;;;4979261;28;20496;-49
2023/05/14 00:56:58;;;;;;;25.05;9.93;;;;;;;;;;4972521;28;20066;-50
2023/05/14 00:59:25;;;;;;;25.38;10.25;;;;;;;;;;5006540;28;20038;-58
2023/05/14 01:01:54;;;;;;;25.03;9.30;;;;;;;;;;4981158;28;20151;-53
2023/05/14 01:04:22;;;;;;;22.85;10.20;;;;;;;;;;5001341;28;20493;-51
2023/05/14 01:06:54;;;;;;;26.05;11.02;;;;;;;;;;4995852;28;20064;-50
2023/05/14 01:09:25;;;;;;;25.08;10.63;;;;;;;;;;4988264;28;20042;-52
2023/05/14 01:11:55;;;;;;;26.33;9.90;;;;;;;;;;4995660;28;20060;-53
2023/05/14 01:14:28;;;;;;;21.87;10.03;;;;;;;;;;4996553;28;20057;-53
2023/05/14 01:16:58;;;;;;;26.10;10.40;;;;;;;;;;4997136;28;20048;-49
2023/05/14 01:19:29;;;;;;;28.00;10.55;;;;;;;;;;4990317;28;20590;-50
2023/05/14 01:21:59;;;;;;;26.02;10.25;;;;;;;;;;5004987;28;20038;-49
2023/05/14 01:24:26;;;;;;;22.38;10.13;;;;;;;;;;4986679;28;20101;-48
2023/05/14 01:26:58;;;;;;;24.07;10.57;;;;;;;;;;4995800;28;20077;-55
2023/05/14 01:29:26;;;;;;;23.63;9.73;;;;;;;;;;4984759;28;20045;-52
2023/05/14 01:31:55;;;;;;;22.08;9.80;;;;;;;;;;4996313;28;20061;-49
2023/05/14 01:34:24;;;;;;;23.88;9.93;;;;;;;;;;4996346;28;20048;-51
2023/05/14 01:36:52;;;;;;;22.83;10.63;;;;;;;;;;4987394;28;20041;-53
2023/05/14 01:39:21;;;;;;;23.23;9.83;;;;;;;;;;4992013;28;20155;-54
2023/05/14 01:41:49;;;;;;;24.65;9.75;;;;;;;;;;5003670;28;20332;-50
2023/05/14 01:44:17;;;;;;;24.92;10.32;;;;;;;;;;4984417;28;20041;-50
2023/05/14 01:46:44;;;;;;;23.48;9.57;;;;;;;;;;4986184;28;20069;-52
2023/05/14 01:49:12;;;;;;;22.27;9.15;;;;;;;;;;4987478;28;20045;-51
2023/05/14 01:51:40;;;;;;;20.67;9.10;;;;;;;;;;5003204;28;20560;-51
2023/05/14 01:54:07;;;;;;;22.48;8.93;;;;;;;;;;4983854;28;20084;-52
2023/05/14 01:56:36;;;;;;;21.33;9.82;;;;;;;;;;4995333;28;20055;-51
2023/05/14 01:59:04;;;;;;;21.60;10.18;;;;;;;;;;4986413;28;20095;-53
2023/05/14 02:01:32;;;;;;;23.75;9.77;;;;;;;;;;4980304;28;20136;-49
2023/05/14 02:04:00;;;;;;;21.40;9.50;;;;;;;;;;4994749;28;20054;-54
2023/05/14 02:06:28;;;;;;;22.45;8.82;;;;;;;;;;4994469;28;20570;-52
2023/05/14 02:08:56;;;;;;;20.73;9.05;;;;;;;;;;5003748;28;20133;-50
2023/05/14 02:11:23;;;;;;;23.48;9.82;;;;;;;;;;4994191;28;20120;-50
2023/05/14 02:13:52;;;;;;;27.27;10.00;;;;;;;;;;4968880;28;20041;-49
2023/05/14 02:16:20;;;;;;;21.17;9.60;;;;;;;;;;5004683;28;20514;-54
2023/05/14 02:18:47;;;;;;;24.98;10.25;;;;;;;;;;4938783;28;1332405;-52
2023/05/14 02:21:15;;;;;;;22.55;9.60;;;;;;;;;;4974047;28;20083;-52
2023/05/14 02:23:43;;;;;;;26.25;9.70;;;;;;;;;;4995534;28;20117;-54
2023/05/14 02:26:11;;;;;;;24.23;10.77;;;;;;;;;;4999047;28;20128;-53
2023/05/14 02:28:39;;;;;;;24.23;9.97;;;;;;;;;;4990890;28;20038;-52
2023/05/14 02:31:07;;;;;;;27.52;10.32;;;;;;;;;;4991236;28;20774;-53
2023/05/14 02:33:35;;;;;;;20.45;8.63;;;;;;;;;;4995604;28;20069;-52
2023/05/14 02:36:03;;;;;;;23.55;8.88;;;;;;;;;;5010278;28;20487;-53
2023/05/14 02:38:30;;;;;;;22.27;9.73;;;;;;;;;;5014464;28;20053;-52
2023/05/14 02:40:58;;;;;;;23.70;10.03;;;;;;;;;;4969673;28;20075;-51
2023/05/14 02:43:27;;;;;;;25.83;10.45;;;;;;;;;;4986535;28;20063;-53
2023/05/14 02:45:55;;;;;;;23.17;10.40;;;;;;;;;;4991608;28;20037;-50
2023/05/14 02:48:24;;;;;;;26.02;11.48;;;;;;;;;;4987569;28;20046;-50
2023/05/14 02:50:52;;;;;;;25.45;9.60;;;;;;;;;;4991168;28;20057;-48
2023/05/14 02:53:20;;;;;;;27.67;10.17;;;;;;;;;;4979767;28;20048;-51
2023/05/14 02:55:47;;;;;;;24.98;10.00;;;;;;;;;;4948022;28;20034;-51
2023/05/14 02:58:15;;;;;;;22.35;9.02;;;;;;;;;;5005839;28;20042;-48
2023/05/14 03:00:42;;;;;;;25.05;10.52;;;;;;;;;;4999323;28;20044;-53
2023/05/14 03:03:10;;;;;;;25.38;9.50;;;;;;;;;;4983963;28;20045;-53
2023/05/14 03:05:40;;;;;;;21.67;9.27;;;;;;;;;;4992004;28;20858;-51
2023/05/14 03:08:08;;;;;;;27.00;10.52;;;;;;;;;;5001611;28;20052;-50
2023/05/14 03:10:35;;;;;;;27.17;10.63;;;;;;;;;;4976524;28;20153;-51
2023/05/14 03:13:03;;;;;;;23.23;10.20;;;;;;;;;;4988373;28;20124;-49
2023/05/14 03:15:31;;;;;;;24.33;10.48;;;;;;;;;;4989214;28;20065;-50
2023/05/14 03:17:58;;;;;;;29.57;10.87;;;;;;;;;;4995771;28;20128;-52
2023/05/14 03:20:26;;;;;;;25.67;10.70;;;;;;;;;;4989048;28;20624;-53
2023/05/14 03:22:55;;;;;;;23.85;10.10;;;;;;;;;;4986581;28;20034;-53
2023/05/14 03:25:23;;;;;;;23.52;10.07;;;;;;;;;;4995650;28;20072;-49
2023/05/14 03:27:50;;;;;;;24.45;9.43;;;;;;;;;;4981054;28;20132;-55
2023/05/14 03:30:18;;;;;;;24.20;9.67;;;;;;;;;;4999605;28;20123;-50
2023/05/14 03:32:45;;;;;;;23.92;9.70;;;;;;;;;;4994337;28;20129;-53
2023/05/14 03:35:13;;;;;;;23.13;9.50;;;;;;;;;;4997162;28;20121;-53
2023/05/14 03:37:40;;;;;;;26.85;9.95;;;;;;;;;;4985640;28;20550;-51
2023/05/14 03:40:10;;;;;;;25.77;10.07;;;;;;;;;;4975966;28;20037;-51
2023/05/14 03:42:38;;;;;;;23.37;9.50;;;;;;;;;;4994820;28;20335;-53
2023/05/14 03:45:06;;;;;;;27.05;10.65;;;;;;;;;;4987765;28;20804;-52
2023/05/14 03:47:34;;;;;;;24.00;9.77;;;;;;;;;;4999323;28;20077;-51
2023/05/14 03:50:01;;;;;;;25.90;9.65;;;;;;;;;;4991215;28;20037;-54
2023/05/14 03:52:29;;;;;;;23.27;9.48;;;;;;;;;;4987862;28;20069;-53
2023/05/14 03:54:57;;;;;;;30.27;10.60;;;;;;;;;;4978968;28;20481;-50
2023/05/14 03:57:26;;;;;;;26.42;10.52;;;;;;;;;;4970129;28;20371;-50
2023/05/14 03:59:53;;;;;;;28.42;10.70;;;;;;;;;;4999249;28;20176;-53
2023/05/14 04:02:21;;;;;;;22.67;9.27;;;;;;;;;;4981302;28;20038;-53
2023/05/14 04:04:48;;;;;;;26.83;11.32;;;;;;;;;;4997644;28;20034;-53
2023/05/14 04:07:17;;;;;;;31.47;9.87;;;;;;;;;;4995129;28;20103;-54
2023/05/14 04:09:44;;;;;;;26.27;10.57;;;;;;;;;;4994226;28;20133;-51
2023/05/14 04:12:12;;;;;;;26.13;10.52;;;;;;;;;;4982494;28;20128;-50
2023/05/14 04:14:41;;;;;;;23.73;10.07;;;;;;;;;;4998010;28;20060;-49
2023/05/14 04:17:09;;;;;;;26.52;10.45;;;;;;;;;;4988522;28;20045;-49
2023/05/14 04:19:36;;;;;;;27.77;10.33;;;;;;;;;;4996917;28;20074;-49
2023/05/14 04:22:04;;;;;;;31.98;11.85;;;;;;;;;;4988082;28;20935;-49
2023/05/14 04:24:32;;;;;;;25.17;10.95;;;;;;;;;;5002135;28;20120;-51
2023/05/14 04:27:00;;;;;;;25.88;10.40;;;;;;;;;;4997700;28;20551;-50
2023/05/14 04:29:27;;;;;;;25.83;10.77;;;;;;;;;;4990101;28;20041;-47
2023/05/14 04:31:56;;;;;;;25.83;10.93;;;;;;;;;;4991522;28;20072;-54
2023/05/14 04:34:25;;;;;;;26.75;10.77;;;;;;;;;;4996740;28;20050;-50
2023/05/14 04:36:52;;;;;;;27.98;10.88;;;;;;;;;;4986309;28;20069;-54
2023/05/14 04:39:20;;;;;;;28.35;10.43;;;;;;;;;;4995950;28;20071;-49
2023/05/14 04:41:52;;;;;;;26.65;10.38;;;;;;;;;;4990579;28;20087;-49
2023/05/14 04:44:20;;;;;;;26.77;10.57;;;;;;;;;;4963478;28;20034;-51
2023/05/14 04:46:48;;;;;;;29.17;10.68;;;;;;;;;;4995668;28;20096;-49
2023/05/14 04:49:17;;;;;;;27.20;11.13;;;;;;;;;;4997779;28;20073;-52
2023/05/14 04:51:44;;;;;;;29.55;10.63;;;;;;;;;;4987658;28;20115;-50
2023/05/14 04:54:14;;;;;;;30.27;11.07;;;;;;;;;;5000849;28;20042;-53
2023/05/14 04:56:43;;;;;;;34.33;11.83;;;;;;;;;;4998138;28;20038;-53
2023/05/14 04:59:11;;;;;;;33.78;11.15;;;;;;;;;;4980618;28;20562;-52
2023/05/14 05:01:38;;;;;;;30.40;12.48;;;;;;;;;;5009856;28;20045;-53
2023/05/14 05:04:06;;;;;;;29.75;11.38;;;;;;;;;;4982335;28;20485;-50
2023/05/14 05:06:35;;;;;;;28.13;11.63;;;;;;;;;;5003201;28;20465;-53
2023/05/14 05:09:03;;;;;;;27.47;10.70;;;;;;;;;;4996857;28;20129;-52
2023/05/14 05:11:31;;;;;;;30.15;11.60;;;;;;;;;;5010719;28;20042;-50
2023/05/14 05:13:58;;;;;;;28.60;10.85;;;;;;;;;;4979863;28;20119;-52
2023/05/14 05:16:26;;;;;;;27.85;10.27;;;;;;;;;;4986184;28;20566;-53
2023/05/14 05:18:53;;;;;;;28.58;11.88;;;;;;;;;;4990784;28;20041;-52
2023/05/14 05:21:21;;;;;;;26.20;10.23;;;;;;;;;;4997646;28;20117;-52
2023/05/14 05:23:50;;;;;;;26.05;9.45;;;;;;;;;;4993080;28;20136;-51
2023/05/14 05:26:21;;;;;;;26.98;9.77;;;;;;;;;;4984484;28;20054;-52
2023/05/14 05:28:49;;;;;;;28.77;10.75;;;;;;;;;;4995845;28;20140;-52
2023/05/14 05:31:16;;;;;;;31.45;10.18;;;;;;;;;;4990181;28;20030;-50
2023/05/14 05:33:47;;;;;;;28.13;11.27;;;;;;;;;;5006140;28;20063;-49
2023/05/14 05:36:15;;;;;;;28.77;11.25;;;;;;;;;;4982769;28;20054;-51
2023/05/14 05:38:43;;;;;;;28.15;11.88;;;;;;;;;;4996283;28;20608;-48
2023/05/14 05:41:12;;;;;;;24.67;10.75;;;;;;;;;;4988247;28;20518;-54
2023/05/14 05:43:40;;;;;;;27.23;11.27;;;;;;;;;;5002512;28;20609;-51
2023/05/14 05:46:08;;;;;;;28.37;10.27;;;;;;;;;;4995430;28;20110;-55
2023/05/14 05:48:36;;;;;;;27.38;10.30;;;;;;;;;;5000033;28;20034;-51
2023/05/14 05:51:03;;;;;;;27.40;10.88;;;;;;;;;;5001918;28;20466;-52
2023/05/14 05:53:31;;;;;;;31.23;10.73;;;;;;;;;;5007085;28;20088;-49
2023/05/14 05:55:58;;;;;;;27.17;11.43;;;;;;;;;;4989786;28;20158;-51
2023/05/14 05:58:27;;;;;;;28.30;11.20;;;;;;;;;;4998769;28;20204;-49
2023/05/14 06:00:56;;;;;;;29.23;11.43;;;;;;;;;;4979482;28;20119;-52
2023/05/14 06:03:24;;;;;;;29.02;10.93;;;;;;;;;;5005398;28;20116;-52
2023/05/14 06:05:53;;;;;;;25.05;10.00;;;;;;;;;;5012512;28;20042;-50
2023/05/14 06:08:20;;;;;;;32.33;10.70;;;;;;;;;;4992180;28;20038;-50
2023/05/14 06:10:48;;;;;;;27.53;9.90;;;;;;;;;;5001415;28;20049;-49
2023/05/14 06:13:15;;;;;;;24.77;10.43;;;;;;;;;;4985178;28;20491;-49
2023/05/14 06:15:44;;;;;;;24.10;10.27;;;;;;;;;;5010626;28;20081;-51
2023/05/14 06:18:12;;;;;;;27.48;10.02;;;;;;;;;;4987020;28;20113;-51
2023/05/14 06:20:40;;;;;;;26.33;9.80;;;;;;;;;;5004408;28;20084;-51
2023/05/14 06:23:10;;;;;;;28.90;10.50;;;;;;;;;;4994797;28;20076;-51
2023/05/14 06:25:37;;;;;;;31.13;10.15;;;;;;;;;;5000079;28;20391;-51
2023/05/14 06:28:05;;;;;;;29.45;10.35;;;;;;;;;;4984146;28;20488;-48
2023/05/14 06:30:32;;;;;;;30.02;10.93;;;;;;;;;;5006586;28;20057;-51
2023/05/14 06:33:01;;;;;;;30.02;11.45;;;;;;;;;;4979278;28;20030;-50
2023/05/14 06:35:31;;;;;;;27.97;10.67;;;;;;;;;;5001703;28;20046;-50
2023/05/14 06:37:59;;;;;;;27.63;10.70;;;;;;;;;;4993525;28;20034;-51
2023/05/14 06:40:26;;;;;;;29.70;10.80;;;;;;;;;;4993943;28;20099;-53
2023/05/14 06:42:54;;;;;;;30.45;10.65;;;;;;;;;;4994645;28;20068;-48
2023/05/14 06:45:22;;;;;;;28.80;10.73;;;;;;;;;;4994807;28;20033;-52
2023/05/14 06:47:49;;;;;;;31.13;10.67;;;;;;;;;;5004273;28;20049;-50
2023/05/14 06:50:18;;;;;;;26.15;9.68;;;;;;;;;;4999595;28;20041;-49
2023/05/14 06:52:47;;;;;;;32.22;9.85;;;;;;;;;;4989878;28;20084;-51
2023/05/14 06:55:14;;;;;;;26.25;9.57;;;;;;;;;;4988865;28;20038;-50
2023/05/14 06:57:42;;;;;;;24.70;10.07;;;;;;;;;;4995253;28;20068;-49
2023/05/14 07:00:10;;;;;;;28.00;9.33;;;;;;;;;;4995432;28;20044;-50
2023/05/14 07:02:38;;;;;;;26.33;9.85;;;;;;;;;;4985786;28;20062;-50
2023/05/14 07:05:07;;;;;;;24.35;8.35;;;;;;;;;;4993986;28;20415;-50
2023/05/14 07:07:36;;;;;;;27.48;9.77;;;;;;;;;;4999436;28;20115;-50
2023/05/14 07:10:04;;;;;;;25.00;9.55;;;;;;;;;;5006830;28;20116;-51
2023/05/14 07:12:32;;;;;;;25.83;9.63;;;;;;;;;;4990947;28;20069;-50
2023/05/14 07:15:02;;;;;;;27.25;10.18;;;;;;;;;;4986489;28;20042;-54
2023/05/14 07:17:30;;;;;;;29.88;10.82;;;;;;;;;;4994469;28;20076;-50
2023/05/14 07:19:58;;;;;;;23.52;8.80;;;;;;;;;;4988850;28;20053;-51
2023/05/14 07:22:25;;;;;;;27.23;10.82;;;;;;;;;;5003048;28;20034;-50
2023/05/14 07:24:54;;;;;;;28.23;9.53;;;;;;;;;;4986336;28;21585;-50
2023/05/14 07:27:22;;;;;;;24.40;10.07;;;;;;;;;;4982926;28;20121;-52
2023/05/14 07:29:49;;;;;;;23.73;9.32;;;;;;;;;;4991064;28;20479;-52
2023/05/14 07:32:17;;;;;;;27.13;10.38;;;;;;;;;;5004572;28;20132;-51
2023/05/14 07:35:03;;;;;;;26.77;10.07;;;;;;;;;;5004683;28;20044;-52
2023/05/14 07:37:31;;;;;;;25.93;9.97;;;;;;;;;;4993149;28;20045;-51
2023/05/14 07:40:00;;;;;;;28.15;11.02;;;;;;;;;;4997806;28;20136;-52
2023/05/14 07:42:28;;;;;;;29.00;10.35;;;;;;;;;;4988625;28;20631;-53
2023/05/14 07:45:04;;;;;;;26.17;10.57;;;;;;;;;;4992544;28;20125;-54
2023/05/14 07:47:31;;;;;;;25.88;10.20;;;;;;;;;;4994582;28;20052;-51
2023/05/14 07:49:59;;;;;;;28.17;9.73;;;;;;;;;;4981144;28;20124;-53
2023/05/14 07:52:27;;;;;;;28.63;11.10;;;;;;;;;;4996080;28;20049;-53
2023/05/14 07:54:55;;;;;;;26.17;10.82;;;;;;;;;;4993406;28;20037;-55
2023/05/14 07:57:25;;;;;;;27.35;10.52;;;;;;;;;;4994893;28;20077;-53
2023/05/14 07:59:52;;;;;;;27.02;9.98;;;;;;;;;;5000053;28;20096;-50
2023/05/14 08:02:20;;;;;;;27.27;10.47;;;;;;;;;;4988174;28;20128;-53
2023/05/14 08:04:48;;;;;;;26.25;9.80;;;;;;;;;;5001208;28;20037;-51
2023/05/14 08:07:16;;;;;;;25.58;9.88;;;;;;;;;;5000782;28;20940;-51
2023/05/14 08:09:44;;;;;;;25.95;10.18;;;;;;;;;;4994026;28;20045;-52
2023/05/14 08:12:12;;;;;;;25.88;9.95;;;;;;;;;;4991152;28;20647;-54
2023/05/14 08:14:41;;;;;;;25.00;10.33;;;;;;;;;;4982694;28;20046;-52
2023/05/14 08:17:09;;;;;;;26.48;8.85;;;;;;;;;;4998527;28;20069;-51
2023/05/14 08:19:37;;;;;;;23.90;9.70;;;;;;;;;;4997747;28;20050;-53
2023/05/14 08:22:04;;;;;;;24.75;9.73;;;;;;;;;;4993068;28;20096;-50
2023/05/14 08:24:32;;;;;;;27.38;10.48;;;;;;;;;;5006669;28;20048;-51
2023/05/14 08:27:01;;;;;;;26.40;9.73;;;;;;;;;;4965441;28;20037;-51
2023/05/14 08:29:29;;;;;;;28.73;10.38;;;;;;;;;;5000542;28;20045;-52
2023/05/14 08:31:57;;;;;;;28.13;9.73;;;;;;;;;;4993560;28;20561;-51
2023/05/14 08:34:30;;;;;;;26.05;9.77;;;;;;;;;;4984742;28;20100;-51
2023/05/14 08:36:58;;;;;;;25.52;10.63;;;;;;;;;;4991448;28;20081;-54
2023/05/14 08:39:25;;;;;;;24.07;10.27;;;;;;;;;;4974283;28;20073;-54
2023/05/14 08:41:57;;;;;;;24.10;10.98;;;;;;;;;;5009395;28;20516;-56
2023/05/14 08:44:31;;;;;;;29.38;10.93;;;;;;;;;;4980151;28;20520;-58
2023/05/14 08:47:00;;;;;;;26.40;10.68;;;;;;;;;;4997745;28;20554;-54
2023/05/14 08:49:32;;;;;;;27.42;11.32;;;;;;;;;;4986430;28;20152;-53
2023/05/14 08:52:00;;;;;;;29.07;9.87;;;;;;;;;;5001357;28;20140;-56
2023/05/14 08:54:28;;;;;;;23.92;10.02;;;;;;;;;;4980941;28;20038;-53
2023/05/14 08:56:56;;;;;;;24.55;8.25;;;;;;;;;;4973653;28;20057;-50
2023/05/14 08:59:24;;;;;;;29.10;9.50;;;;;;;;;;4992672;28;20314;-54
2023/05/14 09:01:52;;;;;;;27.85;10.45;;;;;;;;;;4994609;28;20056;-50
2023/05/14 09:04:22;;;;;;;27.03;10.63;;;;;;;;;;5009626;28;20041;-50
2023/05/14 09:06:51;;;;;;;26.73;10.75;;;;;;;;;;5002992;28;20054;-52
2023/05/14 09:09:21;;;;;;;31.40;11.07;;;;;;;;;;4990624;28;20054;-52
2023/05/14 09:11:50;;;;;;;25.88;10.00;;;;;;;;;;4988330;28;20080;-53
2023/05/14 09:14:19;;;;;;;31.40;12.48;;;;;;;;;;4982389;28;20041;-50
2023/05/14 09:16:48;;;;;;;28.57;11.43;;;;;;;;;;4988929;28;20044;-52
2023/05/14 09:19:17;;;;;;;32.83;12.18;;;;;;;;;;4991349;28;20067;-50
2023/05/14 09:21:47;;;;;;;34.42;13.18;;;;;;;;;;4988022;28;20546;-51
2023/05/14 09:24:18;;;;;;;31.90;13.13;;;;;;;;;;5008844;28;20045;-51
2023/05/14 09:26:50;;;;;;;34.35;13.30;;;;;;;;;;4988735;28;20525;-50
2023/05/14 09:29:17;;;;;;;28.67;11.13;;;;;;;;;;4997765;28;20037;-50
2023/05/14 09:31:45;;;;;;;36.53;12.60;;;;;;;;;;4984675;28;20064;-48
2023/05/14 09:34:23;;;;;;;31.13;12.20;;;;;;;;;;4996776;28;20049;-49
2023/05/14 09:36:54;;;;;;;34.55;12.18;;;;;;;;;;4983945;28;20484;-52
2023/05/14 09:39:22;;;;;;;39.58;13.38;;;;;;;;;;4988071;28;20037;-51
2023/05/14 09:41:51;;;;;;;35.70;12.30;;;;;;;;;;5003993;28;20522;-53
2023/05/14 09:44:19;;;;;;;36.47;13.75;;;;;;;;;;4979287;28;20342;-53
2023/05/14 09:46:47;;;;;;;37.83;14.32;;;;;;;;;;4999456;28;20110;-53
2023/05/14 09:49:15;;;;;;;34.30;13.13;;;;;;;;;;4994907;28;20509;-53
2023/05/14 09:51:42;;;;;;;36.30;14.07;;;;;;;;;;4996445;28;20124;-51
2023/05/14 09:54:12;;;;;;;33.60;12.87;;;;;;;;;;4967369;28;20099;-54
2023/05/14 09:56:41;;;;;;;33.20;12.02;;;;;;;;;;4987073;28;20047;-50
2023/05/14 09:59:09;;;;;;;31.23;12.43;;;;;;;;;;4985061;28;20073;-53
2023/05/14 10:01:38;;;;;;;33.58;11.93;;;;;;;;;;4991736;28;20042;-51
2023/05/14 10:04:06;;;;;;;33.13;13.35;;;;;;;;;;4994657;28;20095;-53
2023/05/14 10:06:36;;;;;;;35.53;13.80;;;;;;;;;;5008004;28;20037;-50
2023/05/14 10:09:08;;;;;;;32.80;13.05;;;;;;;;;;4981959;28;20061;-50
2023/05/14 10:11:38;;;;;;;31.98;13.10;;;;;;;;;;4992255;28;20706;-52
2023/05/14 10:14:07;;;;;;;31.90;12.95;;;;;;;;;;4999020;28;20065;-49
2023/05/14 10:16:37;;;;;;;30.30;11.77;;;;;;;;;;4995914;28;20124;-55
2023/05/14 10:19:06;;;;;;;30.00;11.10;;;;;;;;;;4996505;28;20503;-50
2023/05/14 10:21:34;;;;;;;32.33;12.20;;;;;;;;;;4991464;28;20491;-52
2023/05/14 10:24:03;;;;;;;24.55;10.60;;;;;;;;;;4997839;28;20108;-55
2023/05/14 10:26:30;;;;;;;34.45;13.75;;;;;;;;;;4978148;28;20069;-54
2023/05/14 10:28:59;;;;;;;26.95;10.60;;;;;;;;;;4991081;28;20117;-52
2023/05/14 10:31:42;;;;;;;26.83;10.57;;;;;;;;;;4982044;28;20482;-50
2023/05/14 10:34:31;;;;;;;24.52;9.70;;;;;;;;;;4987513;28;20053;-51
2023/05/14 10:36:59;;;;;;;22.48;9.35;;;;;;;;;;5002401;28;20044;-49
2023/05/14 10:39:39;;;;;;;22.83;9.10;;;;;;;;;;4997489;28;20073;-51
2023/05/14 10:42:08;;;;;;;28.13;11.20;;;;;;;;;;4983779;28;20048;-51
2023/05/14 10:44:40;;;;;;;23.13;9.57;;;;;;;;;;4997031;28;20046;-51
2023/05/14 10:47:08;;;;;;;29.40;11.15;;;;;;;;;;4994621;28;20048;-52
2023/05/14 10:49:36;;;;;;;25.98;11.00;;;;;;;;;;4967720;28;20038;-51
2023/05/14 10:52:11;;;;;;;27.83;11.18;;;;;;;;;;4975600;28;20387;-55
2023/05/14 10:54:39;;;;;;;25.70;10.73;;;;;;;;;;4990619;28;20053;-50
2023/05/14 10:57:12;;;;;;;26.43;10.80;;;;;;;;;;4997654;28;20775;-53
2023/05/14 10:59:43;;;;;;;25.13;10.80;;;;;;;;;;4994950;28;20037;-49
2023/05/14 11:02:23;;;;;;;24.52;10.07;;;;;;;;;;4988002;28;20125;-50
2023/05/14 11:04:58;;;;;;;27.08;11.63;;;;;;;;;;5010971;28;20111;-52
2023/05/14 11:07:31;;;;;;;20.38;7.47;;;;;;;;;;4997895;28;20142;-49
2023/05/14 11:10:03;;;;;;;26.53;11.23;;;;;;;;;;4993994;28;20503;-52
2023/05/14 11:12:31;;;;;;;28.35;12.15;;;;;;;;;;4996317;28;20042;-55
2023/05/14 11:15:02;;;;;;;27.02;10.43;;;;;;;;;;4980098;28;20524;-55
2023/05/14 11:17:31;;;;;;;28.80;12.13;;;;;;;;;;4983950;28;20042;-54
2023/05/14 11:19:59;;;;;;;28.30;11.85;;;;;;;;;;4995344;28;20130;-53
2023/05/14 11:22:27;;;;;;;28.37;11.20;;;;;;;;;;4976549;28;20530;-53
2023/05/14 11:24:55;;;;;;;24.45;11.10;;;;;;;;;;4977678;28;20599;-53
2023/05/14 11:27:23;;;;;;;27.40;11.93;;;;;;;;;;4980746;28;20073;-54
2023/05/14 11:29:50;;;;;;;22.15;9.75;;;;;;;;;;4986381;28;20079;-54
2023/05/14 11:32:19;;;;;;;24.10;10.77;;;;;;;;;;4988241;28;20084;-53
2023/05/14 11:34:47;;;;;;;24.27;10.17;;;;;;;;;;5005317;28;20169;-53
2023/05/14 11:37:20;;;;;;;24.48;10.18;;;;;;;;;;4994330;28;20472;-50
2023/05/14 11:39:48;;;;;;;24.42;10.18;;;;;;;;;;4982069;28;20046;-48
2023/05/14 11:42:18;;;;;;;20.50;8.95;;;;;;;;;;4997228;28;20076;-55
2023/05/14 11:44:47;;;;;;;21.75;9.60;;;;;;;;;;4975955;28;20558;-53
2023/05/14 11:47:15;;;;;;;21.27;9.67;;;;;;;;;;5003946;28;20037;-54
2023/05/14 11:49:45;;;;;;;22.85;8.88;;;;;;;;;;4982518;28;20049;-53
2023/05/14 11:52:14;;;;;;;24.33;10.05;;;;;;;;;;5004706;28;20042;-53
2023/05/14 11:54:42;;;;;;;19.88;8.63;;;;;;;;;;4996248;28;20061;-52
2023/05/14 11:57:11;;;;;;;21.27;9.57;;;;;;;;;;5006705;28;20123;-54
2023/05/14 11:59:39;;;;;;;23.90;10.17;;;;;;;;;;4984042;28;20120;-53
2023/05/14 12:02:10;;;;;;;25.00;10.52;;;;;;;;;;4994508;28;20050;-53
2023/05/14 12:04:37;;;;;;;21.30;9.90;;;;;;;;;;5006506;28;20136;-54
2023/05/14 12:07:09;;;;;;;24.35;10.38;;;;;;;;;;5002629;28;20045;-53
2023/05/14 12:09:37;;;;;;;20.83;9.55;;;;;;;;;;4995298;28;20103;-53
2023/05/14 12:12:08;;;;;;;18.17;8.40;;;;;;;;;;4990041;28;20719;-49
2023/05/14 12:14:40;;;;;;;22.90;8.93;;;;;;;;;;4988646;28;20118;-53
2023/05/14 12:17:17;;;;;;;19.50;9.50;;;;;;;;;;4974387;28;20045;-48
2023/05/14 12:19:47;;;;;;;19.48;9.23;;;;;;;;;;4973467;28;20061;-51
2023/05/14 12:22:17;;;;;;;21.42;9.13;;;;;;;;;;4982953;28;20038;-50
2023/05/14 12:24:53;;;;;;;18.37;7.83;;;;;;;;;;4990022;28;20696;-50
2023/05/14 12:27:22;;;;;;;19.17;8.18;;;;;;;;;;4986673;28;20049;-52
2023/05/14 12:29:52;;;;;;;20.98;8.95;;;;;;;;;;4977368;28;20128;-52
2023/05/14 12:32:19;;;;;;;19.75;8.45;;;;;;;;;;4986243;28;20096;-50
2023/05/14 12:34:47;;;;;;;20.83;7.95;;;;;;;;;;4986265;28;20207;-50
2023/05/14 12:37:18;;;;;;;20.83;9.77;;;;;;;;;;4984117;28;20041;-51
2023/05/14 12:39:45;;;;;;;17.27;7.70;;;;;;;;;;4999353;28;20132;-52
2023/05/14 12:42:18;;;;;;;16.00;7.05;;;;;;;;;;4993994;28;20656;-52
2023/05/14 12:44:47;;;;;;;15.95;7.47;;;;;;;;;;4993586;28;20052;-58
2023/05/14 12:47:15;;;;;;;14.73;6.75;;;;;;;;;;4995478;28;20041;-52
2023/05/14 12:49:43;;;;;;;14.80;5.90;;;;;;;;;;5001334;28;20041;-50
2023/05/14 12:52:11;;;;;;;16.73;7.22;;;;;;;;;;4990767;28;20506;-50
2023/05/14 12:54:43;;;;;;;13.13;6.03;;;;;;;;;;5003197;28;20119;-48
2023/05/14 12:57:10;;;;;;;13.27;6.03;;;;;;;;;;4990180;28;20701;-52
2023/05/14 12:59:38;;;;;;;15.60;6.22;;;;;;;;;;4997017;28;20144;-53
2023/05/14 13:02:06;;;;;;;16.07;7.27;;;;;;;;;;4987520;28;20062;-53
2023/05/14 13:04:34;;;;;;;13.75;6.47;;;;;;;;;;4991989;28;20037;-55
2023/05/14 13:07:02;;;;;;;17.20;6.72;;;;;;;;;;4999654;28;20043;-54
2023/05/14 13:09:30;;;;;;;15.88;7.25;;;;;;;;;;4990262;28;20042;-50
2023/05/14 13:11:59;;;;;;;14.70;6.05;;;;;;;;;;4988123;28;20038;-50
2023/05/14 13:14:27;;;;;;;12.53;5.10;;;;;;;;;;4998205;28;20502;-52
2023/05/14 13:16:54;;;;;;;7.97;4.25;;;;;;;;;;4996306;28;20772;-50
2023/05/14 13:19:22;;;;;;;10.00;4.00;;;;;;;;;;5008003;28;20060;-51
2023/05/14 13:21:50;;;;;;;8.93;4.18;;;;;;;;;;4973790;28;20476;-49
2023/05/14 13:24:17;;;;;;;8.20;3.03;;;;;;;;;;4994407;28;20120;-55
2023/05/14 13:26:46;;;;;;;8.17;3.23;;;;;;;;;;4989737;28;20504;-53
2023/05/14 13:29:14;;;;;;;6.30;3.08;;;;;;;;;;4995507;28;20048;-53
2023/05/14 13:31:42;;;;;;;5.90;2.65;;;;;;;;;;4998485;28;20072;-53
2023/05/14 13:34:10;;;;;;;7.43;2.90;;;;;;;;;;4992517;28;20129;-55
2023/05/14 13:36:38;;;;;;;6.97;3.40;;;;;;;;;;4993477;28;20077;-53
2023/05/14 13:39:06;;;;;;;9.20;3.50;;;;;;;;;;4971332;28;20525;-51
2023/05/14 13:41:37;;;;;;;6.47;2.72;;;;;;;;;;5005351;28;20038;-48
2023/05/14 13:44:06;;;;;;;8.98;3.38;;;;;;;;;;4988527;28;20091;-54
2023/05/14 13:46:35;;;;;;;7.88;3.58;;;;;;;;;;4991564;28;20033;-53
2023/05/14 13:49:03;;;;;;;7.40;2.85;;;;;;;;;;4982789;28;20065;-54
2023/05/14 13:51:30;;;;;;;6.87;2.83;;;;;;;;;;4989120;28;20808;-48
2023/05/14 13:53:58;;;;;;;8.40;3.22;;;;;;;;;;4995296;28;20108;-51
2023/05/14 13:56:25;;;;;;;7.55;3.47;;;;;;;;;;5000128;28;20099;-53
2023/05/14 13:58:53;;;;;;;5.80;2.60;;;;;;;;;;4991933;28;20140;-53
2023/05/14 14:01:22;;;;;;;6.03;2.95;;;;;;;;;;4991786;28;21370;-51
2023/05/14 14:03:51;;;;;;;5.43;2.53;;;;;;;;;;4988865;28;20037;-51
2023/05/14 14:06:19;;;;;;;6.68;2.83;;;;;;;;;;4994914;28;20403;-50
2023/05/14 14:08:47;;;;;;;7.85;3.20;;;;;;;;;;4998315;28;20072;-54
2023/05/14 14:11:15;;;;;;;8.40;2.80;;;;;;;;;;5003856;28;20116;-53
2023/05/14 14:13:43;;;;;;;6.00;2.65;;;;;;;;;;4996612;28;20268;-50
2023/05/14 14:16:13;;;;;;;6.70;2.30;;;;;;;;;;4985173;28;20044;-56
2023/05/14 14:18:41;;;;;;;7.90;2.90;;;;;;;;;;4988430;28;20492;-52
2023/05/14 14:21:11;;;;;;;4.88;2.17;;;;;;;;;;4993586;28;20053;-54
2023/05/14 14:23:39;;;;;;;8.35;2.05;;;;;;;;;;4990457;28;20508;-52
2023/05/14 14:26:07;;;;;;;6.70;2.20;;;;;;;;;;4985325;28;20938;-51
2023/05/14 14:28:34;;;;;;;7.33;2.23;;;;;;;;;;4981036;28;20042;-53
2023/05/14 14:31:02;;;;;;;7.65;2.30;;;;;;;;;;4995508;28;20037;-52